sensor_id;sensor_type;location;lat;lon;timestamp;pressure;altitude;pressure_sealevel;temperature;humidity
33506;BME280;19843;51.040;13.782;2022-12-10T00:01:03;99369.97;;;3.09;84.81
33506;BME280;19843;51.040;13.782;2022-12-10T00:03:31;99368.44;;;3.05;84.97
33506;BME280;19843;51.040;13.782;2022-12-10T00:06:01;99364.59;;;3.11;85.03
33506;BME280;19843;51.040;13.782;2022-12-10T00:08:29;99368.97;;;3.12;84.88
33506;BME280;19843;51.040;13.782;2022-12-10T00:10:57;99362.72;;;3.13;84.94
33506;BME280;19843;51.040;13.782;2022-12-10T00:13:24;99360.94;;;3.13;84.65
33506;BME280;19843;51.040;13.782;2022-12-10T00:15:52;99361.00;;;3.12;84.18
33506;BME280;19843;51.040;13.782;2022-12-10T00:18:19;99356.75;;;3.09;84.32
33506;BME280;19843;51.040;13.782;2022-12-10T00:20:47;99364.69;;;2.92;84.62
33506;BME280;19843;51.040;13.782;2022-12-10T00:23:18;99373.50;;;2.92;85.03
33506;BME280;19843;51.040;13.782;2022-12-10T00:25:49;99366.09;;;2.99;84.62
33506;BME280;19843;51.040;13.782;2022-12-10T00:28:16;99361.41;;;3.04;85.12
33506;BME280;19843;51.040;13.782;2022-12-10T00:30:43;99365.59;;;3.08;85.11
33506;BME280;19843;51.040;13.782;2022-12-10T00:33:11;99373.53;;;3.08;85.45
33506;BME280;19843;51.040;13.782;2022-12-10T00:35:38;99371.69;;;3.10;84.29
33506;BME280;19843;51.040;13.782;2022-12-10T00:38:06;99371.28;;;3.18;84.66
33506;BME280;19843;51.040;13.782;2022-12-10T00:40:35;99369.50;;;3.19;84.95
33506;BME280;19843;51.040;13.782;2022-12-10T00:43:02;99366.75;;;3.20;84.39
33506;BME280;19843;51.040;13.782;2022-12-10T00:45:30;99364.19;;;3.19;84.37
33506;BME280;19843;51.040;13.782;2022-12-10T00:47:57;99373.69;;;3.23;84.48
33506;BME280;19843;51.040;13.782;2022-12-10T00:50:25;99374.78;;;3.19;83.92
33506;BME280;19843;51.040;13.782;2022-12-10T00:52:52;99375.22;;;3.27;84.00
33506;BME280;19843;51.040;13.782;2022-12-10T00:55:20;99375.56;;;3.21;83.43
33506;BME280;19843;51.040;13.782;2022-12-10T00:57:49;99369.00;;;3.28;83.72
33506;BME280;19843;51.040;13.782;2022-12-10T01:00:20;99374.91;;;3.33;83.79
33506;BME280;19843;51.040;13.782;2022-12-10T01:02:47;99374.53;;;3.23;83.85
33506;BME280;19843;51.040;13.782;2022-12-10T01:05:15;99374.13;;;3.31;83.48
33506;BME280;19843;51.040;13.782;2022-12-10T01:07:42;99378.69;;;3.11;83.83
33506;BME280;19843;51.040;13.782;2022-12-10T01:10:10;99377.06;;;3.09;84.22
33506;BME280;19843;51.040;13.782;2022-12-10T01:12:38;99382.38;;;3.09;84.39
33506;BME280;19843;51.040;13.782;2022-12-10T01:15:07;99377.56;;;3.16;84.29
33506;BME280;19843;51.040;13.782;2022-12-10T01:17:35;99372.53;;;3.11;84.35
33506;BME280;19843;51.040;13.782;2022-12-10T01:20:03;99379.25;;;3.01;84.59
33506;BME280;19843;51.040;13.782;2022-12-10T01:22:31;99379.81;;;2.90;85.04
33506;BME280;19843;51.040;13.782;2022-12-10T01:24:59;99386.72;;;2.92;85.04
33506;BME280;19843;51.040;13.782;2022-12-10T01:27:26;99382.94;;;2.98;85.16
33506;BME280;19843;51.040;13.782;2022-12-10T01:29:54;99381.84;;;3.02;85.00
33506;BME280;19843;51.040;13.782;2022-12-10T01:32:23;99391.56;;;3.02;85.08
33506;BME280;19843;51.040;13.782;2022-12-10T01:34:50;99383.84;;;2.97;84.73
33506;BME280;19843;51.040;13.782;2022-12-10T01:37:18;99400.22;;;2.88;84.63
33506;BME280;19843;51.040;13.782;2022-12-10T01:39:45;99392.44;;;2.85;84.60
33506;BME280;19843;51.040;13.782;2022-12-10T01:42:13;99394.53;;;2.78;85.00
33506;BME280;19843;51.040;13.782;2022-12-10T01:44:58;99402.41;;;2.80;84.77
33506;BME280;19843;51.040;13.782;2022-12-10T01:47:27;99402.19;;;2.84;84.88
33506;BME280;19843;51.040;13.782;2022-12-10T01:49:54;99397.25;;;2.77;84.95
33506;BME280;19843;51.040;13.782;2022-12-10T01:52:24;99397.03;;;2.64;85.53
33506;BME280;19843;51.040;13.782;2022-12-10T01:54:51;99395.00;;;2.69;85.46
33506;BME280;19843;51.040;13.782;2022-12-10T01:57:22;99396.72;;;2.70;85.68
33506;BME280;19843;51.040;13.782;2022-12-10T01:59:52;99385.28;;;2.69;86.08
33506;BME280;19843;51.040;13.782;2022-12-10T02:02:28;99395.56;;;2.76;85.88
33506;BME280;19843;51.040;13.782;2022-12-10T02:05:07;99387.75;;;2.90;84.87
33506;BME280;19843;51.040;13.782;2022-12-10T02:07:46;99385.28;;;2.87;84.98
33506;BME280;19843;51.040;13.782;2022-12-10T02:10:24;99391.00;;;2.95;84.96
33506;BME280;19843;51.040;13.782;2022-12-10T02:12:57;99379.25;;;3.01;84.64
33506;BME280;19843;51.040;13.782;2022-12-10T02:15:32;99390.88;;;2.98;84.27
33506;BME280;19843;51.040;13.782;2022-12-10T02:18:05;99389.91;;;2.99;84.44
33506;BME280;19843;51.040;13.782;2022-12-10T02:20:37;99372.78;;;3.06;83.72
33506;BME280;19843;51.040;13.782;2022-12-10T02:23:08;99379.72;;;3.09;83.59
33506;BME280;19843;51.040;13.782;2022-12-10T02:25:41;99383.59;;;3.02;83.98
33506;BME280;19843;51.040;13.782;2022-12-10T02:28:15;99381.66;;;3.05;84.29
33506;BME280;19843;51.040;13.782;2022-12-10T02:30:47;99385.41;;;3.01;84.10
33506;BME280;19843;51.040;13.782;2022-12-10T02:33:17;99378.78;;;2.92;83.92
33506;BME280;19843;51.040;13.782;2022-12-10T02:35:47;99374.38;;;2.76;84.10
33506;BME280;19843;51.040;13.782;2022-12-10T02:38:20;99379.50;;;2.79;84.19
33506;BME280;19843;51.040;13.782;2022-12-10T02:40:53;99380.94;;;2.68;84.27
33506;BME280;19843;51.040;13.782;2022-12-10T02:43:23;99388.69;;;2.71;85.16
33506;BME280;19843;51.040;13.782;2022-12-10T02:45:53;99379.06;;;2.70;84.49
33506;BME280;19843;51.040;13.782;2022-12-10T02:48:22;99383.00;;;2.79;84.35
33506;BME280;19843;51.040;13.782;2022-12-10T02:50:49;99377.41;;;2.68;84.61
33506;BME280;19843;51.040;13.782;2022-12-10T02:53:17;99383.47;;;2.70;84.50
33506;BME280;19843;51.040;13.782;2022-12-10T02:55:56;99380.16;;;2.66;84.47
33506;BME280;19843;51.040;13.782;2022-12-10T02:58:31;99386.84;;;2.74;84.54
33506;BME280;19843;51.040;13.782;2022-12-10T03:01:10;99385.88;;;2.75;84.51
33506;BME280;19843;51.040;13.782;2022-12-10T03:03:43;99379.44;;;2.63;84.29
33506;BME280;19843;51.040;13.782;2022-12-10T03:06:17;99380.03;;;2.68;84.63
33506;BME280;19843;51.040;13.782;2022-12-10T03:08:50;99388.69;;;2.71;85.01
33506;BME280;19843;51.040;13.782;2022-12-10T03:11:21;99395.09;;;2.85;84.31
33506;BME280;19843;51.040;13.782;2022-12-10T03:13:53;99402.97;;;2.86;83.91
33506;BME280;19843;51.040;13.782;2022-12-10T03:16:23;99400.16;;;2.89;83.47
33506;BME280;19843;51.040;13.782;2022-12-10T03:18:56;99397.56;;;2.88;82.55
33506;BME280;19843;51.040;13.782;2022-12-10T03:21:25;99407.72;;;2.80;83.10
33506;BME280;19843;51.040;13.782;2022-12-10T03:23:54;99401.16;;;2.69;83.05
33506;BME280;19843;51.040;13.782;2022-12-10T03:26:22;99402.72;;;2.74;83.16
33506;BME280;19843;51.040;13.782;2022-12-10T03:28:54;99390.94;;;2.79;83.36
33506;BME280;19843;51.040;13.782;2022-12-10T03:31:25;99397.66;;;2.86;82.80
33506;BME280;19843;51.040;13.782;2022-12-10T03:33:54;99407.38;;;2.86;82.81
33506;BME280;19843;51.040;13.782;2022-12-10T03:36:22;99409.09;;;2.87;82.56
33506;BME280;19843;51.040;13.782;2022-12-10T03:38:51;99413.44;;;2.88;83.08
33506;BME280;19843;51.040;13.782;2022-12-10T03:41:19;99415.19;;;2.89;82.68
33506;BME280;19843;51.040;13.782;2022-12-10T03:43:51;99404.91;;;2.83;82.54
33506;BME280;19843;51.040;13.782;2022-12-10T03:46:20;99408.16;;;2.88;83.13
33506;BME280;19843;51.040;13.782;2022-12-10T03:48:49;99407.84;;;2.94;83.05
33506;BME280;19843;51.040;13.782;2022-12-10T03:51:17;99407.53;;;2.83;82.59
33506;BME280;19843;51.040;13.782;2022-12-10T03:53:45;99407.22;;;2.71;83.29
33506;BME280;19843;51.040;13.782;2022-12-10T03:56:15;99401.31;;;2.66;83.25
33506;BME280;19843;51.040;13.782;2022-12-10T03:58:43;99397.59;;;2.70;83.06
33506;BME280;19843;51.040;13.782;2022-12-10T04:01:10;99401.56;;;2.62;83.05
33506;BME280;19843;51.040;13.782;2022-12-10T04:03:40;99399.38;;;2.53;83.86
33506;BME280;19843;51.040;13.782;2022-12-10T04:06:11;99405.75;;;2.48;84.28
33506;BME280;19843;51.040;13.782;2022-12-10T04:08:38;99401.53;;;2.44;84.47
33506;BME280;19843;51.040;13.782;2022-12-10T04:11:09;99395.78;;;2.54;84.35
33506;BME280;19843;51.040;13.782;2022-12-10T04:13:37;99401.13;;;2.52;84.33
33506;BME280;19843;51.040;13.782;2022-12-10T04:16:38;99401.91;;;2.54;84.85
33506;BME280;19843;51.040;13.782;2022-12-10T04:19:07;99403.78;;;2.52;84.87
33506;BME280;19843;51.040;13.782;2022-12-10T04:21:37;99404.78;;;2.49;85.12
33506;BME280;19843;51.040;13.782;2022-12-10T04:24:24;99405.44;;;2.55;85.03
33506;BME280;19843;51.040;13.782;2022-12-10T04:27:11;99400.59;;;2.63;84.97
33506;BME280;19843;51.040;13.782;2022-12-10T04:29:39;99399.44;;;2.68;85.00
33506;BME280;19843;51.040;13.782;2022-12-10T04:32:07;99397.97;;;2.63;84.73
33506;BME280;19843;51.040;13.782;2022-12-10T04:34:34;99404.34;;;2.59;84.97
33506;BME280;19843;51.040;13.782;2022-12-10T04:37:04;99396.03;;;2.66;85.01
33506;BME280;19843;51.040;13.782;2022-12-10T04:39:32;99397.34;;;2.75;84.95
33506;BME280;19843;51.040;13.782;2022-12-10T04:42:00;99393.69;;;2.78;85.05
33506;BME280;19843;51.040;13.782;2022-12-10T04:44:27;99400.06;;;2.74;84.94
33506;BME280;19843;51.040;13.782;2022-12-10T04:46:55;99392.84;;;2.77;84.40
33506;BME280;19843;51.040;13.782;2022-12-10T04:49:24;99396.72;;;2.70;84.50
33506;BME280;19843;51.040;13.782;2022-12-10T04:51:52;99394.16;;;2.68;85.28
33506;BME280;19843;51.040;13.782;2022-12-10T04:54:21;99393.22;;;2.69;85.21
33506;BME280;19843;51.040;13.782;2022-12-10T04:56:49;99394.16;;;2.68;85.23
33506;BME280;19843;51.040;13.782;2022-12-10T04:59:16;99397.09;;;2.62;85.14
33506;BME280;19843;51.040;13.782;2022-12-10T05:01:44;99393.38;;;2.49;85.60
33506;BME280;19843;51.040;13.782;2022-12-10T05:04:12;99388.44;;;2.59;85.32
33506;BME280;19843;51.040;13.782;2022-12-10T05:06:41;99387.16;;;2.50;86.11
33506;BME280;19843;51.040;13.782;2022-12-10T05:09:10;99387.78;;;2.55;85.94
33506;BME280;19843;51.040;13.782;2022-12-10T05:11:39;99391.34;;;2.54;86.07
33506;BME280;19843;51.040;13.782;2022-12-10T05:14:10;99390.41;;;2.55;86.32
33506;BME280;19843;51.040;13.782;2022-12-10T05:16:38;99394.16;;;2.68;85.97
33506;BME280;19843;51.040;13.782;2022-12-10T05:19:09;99385.13;;;2.72;85.55
33506;BME280;19843;51.040;13.782;2022-12-10T05:21:37;99392.44;;;2.67;85.92
33506;BME280;19843;51.040;13.782;2022-12-10T05:24:22;99391.97;;;2.77;85.03
33506;BME280;19843;51.040;13.782;2022-12-10T05:26:51;99387.69;;;2.74;85.76
33506;BME280;19843;51.040;13.782;2022-12-10T05:29:19;99392.31;;;2.70;85.59
33506;BME280;19843;51.040;13.782;2022-12-10T05:31:46;99394.94;;;2.70;86.03
33506;BME280;19843;51.040;13.782;2022-12-10T05:34:14;99394.00;;;2.71;85.69
33506;BME280;19843;51.040;13.782;2022-12-10T05:36:41;99390.94;;;2.79;85.26
33506;BME280;19843;51.040;13.782;2022-12-10T05:39:10;99392.69;;;2.80;84.94
33506;BME280;19843;51.040;13.782;2022-12-10T05:41:38;99396.34;;;2.78;85.26
33506;BME280;19843;51.040;13.782;2022-12-10T05:44:09;99396.63;;;2.71;85.68
33506;BME280;19843;51.040;13.782;2022-12-10T05:46:37;99395.50;;;2.77;85.20
33506;BME280;19843;51.040;13.782;2022-12-10T05:49:05;99403.25;;;2.80;85.55
33506;BME280;19843;51.040;13.782;2022-12-10T05:51:35;99403.34;;;2.79;85.76
33506;BME280;19843;51.040;13.782;2022-12-10T05:54:04;99411.28;;;2.79;85.77
33506;BME280;19843;51.040;13.782;2022-12-10T05:56:32;99407.06;;;2.75;86.33
33506;BME280;19843;51.040;13.782;2022-12-10T05:59:01;99406.81;;;2.79;85.82
33506;BME280;19843;51.040;13.782;2022-12-10T06:01:32;99399.91;;;2.94;85.27
33506;BME280;19843;51.040;13.782;2022-12-10T06:04:02;99406.59;;;2.84;84.45
33506;BME280;19843;51.040;13.782;2022-12-10T06:06:32;99403.03;;;2.85;84.81
33506;BME280;19843;51.040;13.782;2022-12-10T06:09:00;99403.88;;;2.85;85.11
33506;BME280;19843;51.040;13.782;2022-12-10T06:11:28;99413.00;;;2.80;85.47
33506;BME280;19843;51.040;13.782;2022-12-10T06:13:57;99410.25;;;2.81;85.89
33506;BME280;19843;51.040;13.782;2022-12-10T06:16:26;99408.97;;;2.72;86.49
33506;BME280;19843;51.040;13.782;2022-12-10T06:18:56;99409.03;;;2.88;86.03
33506;BME280;19843;51.040;13.782;2022-12-10T06:21:24;99413.31;;;2.91;85.81
33506;BME280;19843;51.040;13.782;2022-12-10T06:23:52;99407.53;;;2.83;85.74
33506;BME280;19843;51.040;13.782;2022-12-10T06:26:21;99414.69;;;2.81;85.99
33506;BME280;19843;51.040;13.782;2022-12-10T06:28:50;99414.69;;;2.81;86.00
33506;BME280;19843;51.040;13.782;2022-12-10T06:31:18;99424.03;;;2.88;85.45
33506;BME280;19843;51.040;13.782;2022-12-10T06:33:46;99416.50;;;2.80;85.81
33506;BME280;19843;51.040;13.782;2022-12-10T06:36:16;99421.88;;;2.79;85.68
33506;BME280;19843;51.040;13.782;2022-12-10T06:38:44;99431.91;;;2.72;86.86
33506;BME280;19843;51.040;13.782;2022-12-10T06:41:15;99426.16;;;2.81;87.07
33506;BME280;19843;51.040;13.782;2022-12-10T06:43:43;99428.00;;;2.79;87.06
33506;BME280;19843;51.040;13.782;2022-12-10T06:46:13;99431.44;;;2.81;86.60
33506;BME280;19843;51.040;13.782;2022-12-10T06:48:41;99430.13;;;2.90;85.85
33506;BME280;19843;51.040;13.782;2022-12-10T06:51:10;99433.53;;;2.92;84.91
33506;BME280;19843;51.040;13.782;2022-12-10T06:53:40;99431.84;;;2.91;84.97
33506;BME280;19843;51.040;13.782;2022-12-10T06:56:12;99447.72;;;2.74;85.23
33506;BME280;19843;51.040;13.782;2022-12-10T06:58:40;99445.91;;;2.74;86.04
33506;BME280;19843;51.040;13.782;2022-12-10T07:01:10;99439.16;;;2.86;85.78
33506;BME280;19843;51.040;13.782;2022-12-10T07:03:38;99442.91;;;2.82;86.14
33506;BME280;19843;51.040;13.782;2022-12-10T07:06:07;99447.88;;;2.88;85.11
33506;BME280;19843;51.040;13.782;2022-12-10T07:08:35;99448.66;;;2.90;85.18
33506;BME280;19843;51.040;13.782;2022-12-10T07:11:05;99448.28;;;2.80;85.34
33506;BME280;19843;51.040;13.782;2022-12-10T07:13:33;99453.63;;;2.79;85.56
33506;BME280;19843;51.040;13.782;2022-12-10T07:16:01;99449.13;;;2.81;85.64
33506;BME280;19843;51.040;13.782;2022-12-10T07:18:28;99454.56;;;2.78;85.20
33506;BME280;19843;51.040;13.782;2022-12-10T07:20:56;99444.00;;;2.78;85.32
33506;BME280;19843;51.040;13.782;2022-12-10T07:23:23;99444.59;;;2.65;86.14
33506;BME280;19843;51.040;13.782;2022-12-10T07:25:54;99447.09;;;2.68;86.95
33506;BME280;19843;51.040;13.782;2022-12-10T07:28:23;99454.41;;;2.81;86.71
33506;BME280;19843;51.040;13.782;2022-12-10T07:30:50;99452.75;;;2.61;87.29
33506;BME280;19843;51.040;13.782;2022-12-10T07:33:18;99456.19;;;2.63;86.90
33506;BME280;19843;51.040;13.782;2022-12-10T07:35:45;99457.47;;;2.37;88.23
33506;BME280;19843;51.040;13.782;2022-12-10T07:38:14;99463.22;;;2.45;88.16
33506;BME280;19843;51.040;13.782;2022-12-10T07:40:42;99461.34;;;2.29;88.87
33506;BME280;19843;51.040;13.782;2022-12-10T07:43:09;99470.03;;;2.32;89.37
33506;BME280;19843;51.040;13.782;2022-12-10T07:45:38;99463.94;;;2.12;89.68
33506;BME280;19843;51.040;13.782;2022-12-10T07:48:06;99462.78;;;2.18;89.69
33506;BME280;19843;51.040;13.782;2022-12-10T07:50:33;99462.59;;;2.40;89.51
33506;BME280;19843;51.040;13.782;2022-12-10T07:53:01;99464.66;;;2.52;89.09
33506;BME280;19843;51.040;13.782;2022-12-10T07:55:28;99463.34;;;2.24;89.93
33506;BME280;19843;51.040;13.782;2022-12-10T07:57:56;99467.72;;;2.06;90.48
33506;BME280;19843;51.040;13.782;2022-12-10T08:00:23;99472.06;;;2.26;90.19
33506;BME280;19843;51.040;13.782;2022-12-10T08:02:52;99472.63;;;2.33;90.11
33506;BME280;19843;51.040;13.782;2022-12-10T08:05:20;99463.56;;;2.56;89.20
33506;BME280;19843;51.040;13.782;2022-12-10T08:07:47;99465.84;;;2.64;88.75
33506;BME280;19843;51.040;13.782;2022-12-10T08:10:15;99461.97;;;2.71;88.75
33506;BME280;19843;51.040;13.782;2022-12-10T08:12:43;99471.25;;;2.80;87.90
33506;BME280;19843;51.040;13.782;2022-12-10T08:15:10;99469.84;;;2.72;86.86
33506;BME280;19843;51.040;13.782;2022-12-10T08:17:37;99469.66;;;2.58;87.54
33506;BME280;19843;51.040;13.782;2022-12-10T08:20:08;99472.84;;;2.65;88.22
33506;BME280;19843;51.040;13.782;2022-12-10T08:22:36;99479.47;;;2.74;87.74
33506;BME280;19843;51.040;13.782;2022-12-10T08:25:06;99475.13;;;2.72;87.97
33506;BME280;19843;51.040;13.782;2022-12-10T08:27:33;99484.72;;;2.75;88.12
33506;BME280;19843;51.040;13.782;2022-12-10T08:30:01;99475.53;;;2.82;89.00
33506;BME280;19843;51.040;13.782;2022-12-10T08:32:28;99483.84;;;2.92;87.97
33506;BME280;19843;51.040;13.782;2022-12-10T08:34:56;99483.69;;;2.95;87.58
33506;BME280;19843;51.040;13.782;2022-12-10T08:37:24;99489.28;;;2.71;87.64
33506;BME280;19843;51.040;13.782;2022-12-10T08:39:52;99477.31;;;2.82;88.01
33506;BME280;19843;51.040;13.782;2022-12-10T08:42:21;99482.84;;;2.77;87.41
33506;BME280;19843;51.040;13.782;2022-12-10T08:44:48;99483.53;;;2.81;87.49
33506;BME280;19843;51.040;13.782;2022-12-10T08:47:16;99488.81;;;2.81;87.84
33506;BME280;19843;51.040;13.782;2022-12-10T08:49:44;99486.66;;;2.89;88.42
33506;BME280;19843;51.040;13.782;2022-12-10T08:52:12;99495.69;;;2.85;88.24
33506;BME280;19843;51.040;13.782;2022-12-10T08:54:40;99496.47;;;2.87;88.26
33506;BME280;19843;51.040;13.782;2022-12-10T08:57:08;99497.56;;;2.83;89.01
33506;BME280;19843;51.040;13.782;2022-12-10T08:59:35;99496.50;;;2.68;88.50
33506;BME280;19843;51.040;13.782;2022-12-10T09:02:03;99498.41;;;2.66;88.57
33506;BME280;19843;51.040;13.782;2022-12-10T09:04:31;99503.94;;;2.79;88.55
33506;BME280;19843;51.040;13.782;2022-12-10T09:06:58;99507.81;;;2.71;88.82
33506;BME280;19843;51.040;13.782;2022-12-10T09:09:26;99511.41;;;2.88;88.82
33506;BME280;19843;51.040;13.782;2022-12-10T09:11:54;99511.75;;;2.82;88.51
33506;BME280;19843;51.040;13.782;2022-12-10T09:14:22;99518.13;;;2.95;88.24
33506;BME280;19843;51.040;13.782;2022-12-10T09:16:50;99508.97;;;3.02;87.89
33506;BME280;19843;51.040;13.782;2022-12-10T09:19:17;99509.03;;;3.01;87.93
33506;BME280;19843;51.040;13.782;2022-12-10T09:21:46;99509.19;;;2.98;87.94
33506;BME280;19843;51.040;13.782;2022-12-10T09:24:13;99507.06;;;3.04;87.44
33506;BME280;19843;51.040;13.782;2022-12-10T09:26:41;99502.53;;;3.06;86.60
33506;BME280;19843;51.040;13.782;2022-12-10T09:29:10;99508.94;;;2.85;86.62
33506;BME280;19843;51.040;13.782;2022-12-10T09:31:37;99509.31;;;2.77;87.23
33506;BME280;19843;51.040;13.782;2022-12-10T09:34:05;99519.06;;;2.94;87.20
33506;BME280;19843;51.040;13.782;2022-12-10T09:36:33;99507.00;;;2.88;87.33
33506;BME280;19843;51.040;13.782;2022-12-10T09:39:03;99511.75;;;2.82;87.47
33506;BME280;19843;51.040;13.782;2022-12-10T09:41:40;99513.38;;;2.84;87.92
33506;BME280;19843;51.040;13.782;2022-12-10T09:44:25;99509.25;;;2.96;87.18
33506;BME280;19843;51.040;13.782;2022-12-10T09:46:58;99510.78;;;2.83;87.24
33506;BME280;19843;51.040;13.782;2022-12-10T09:49:33;99508.47;;;2.94;87.18
33506;BME280;19843;51.040;13.782;2022-12-10T09:52:10;99507.41;;;2.98;87.12
33506;BME280;19843;51.040;13.782;2022-12-10T09:54:42;99505.94;;;2.74;87.54
33506;BME280;19843;51.040;13.782;2022-12-10T09:57:19;99506.47;;;2.63;88.13
33506;BME280;19843;51.040;13.782;2022-12-10T09:59:50;99499.25;;;2.66;88.66
33506;BME280;19843;51.040;13.782;2022-12-10T10:02:23;99503.38;;;2.72;87.71
33506;BME280;19843;51.040;13.782;2022-12-10T10:04:56;99495.75;;;2.66;88.26
33506;BME280;19843;51.040;13.782;2022-12-10T10:07:28;99496.66;;;2.65;88.56
33506;BME280;19843;51.040;13.782;2022-12-10T10:10:00;99493.84;;;2.68;88.17
33506;BME280;19843;51.040;13.782;2022-12-10T10:12:31;99498.50;;;2.82;88.02
33506;BME280;19843;51.040;13.782;2022-12-10T10:15:10;99494.84;;;2.84;88.09
33506;BME280;19843;51.040;13.782;2022-12-10T10:17:39;99494.75;;;2.68;88.77
33506;BME280;19843;51.040;13.782;2022-12-10T10:20:12;99485.72;;;2.72;89.13
33506;BME280;19843;51.040;13.782;2022-12-10T10:22:40;99492.22;;;2.65;89.56
33506;BME280;19843;51.040;13.782;2022-12-10T10:25:12;99495.31;;;2.56;89.33
33506;BME280;19843;51.040;13.782;2022-12-10T10:27:41;99484.34;;;2.46;88.57
33506;BME280;19843;51.040;13.782;2022-12-10T10:30:16;99497.50;;;2.48;88.38
33506;BME280;19843;51.040;13.782;2022-12-10T10:32:47;99489.34;;;2.53;88.70
33506;BME280;19843;51.040;13.782;2022-12-10T10:35:25;99491.88;;;2.54;89.11
33506;BME280;19843;51.040;13.782;2022-12-10T10:37:57;99489.19;;;2.56;88.78
33506;BME280;19843;51.040;13.782;2022-12-10T10:40:28;99486.94;;;2.65;88.59
33506;BME280;19843;51.040;13.782;2022-12-10T10:42:58;99500.16;;;2.48;89.49
33506;BME280;19843;51.040;13.782;2022-12-10T10:45:37;99492.84;;;2.53;89.24
33506;BME280;19843;51.040;13.782;2022-12-10T10:48:11;99490.34;;;2.31;90.47
33506;BME280;19843;51.040;13.782;2022-12-10T10:50:41;99487.22;;;2.42;89.36
33506;BME280;19843;51.040;13.782;2022-12-10T10:53:30;99484.56;;;2.42;89.67
33506;BME280;19843;51.040;13.782;2022-12-10T10:56:06;99482.63;;;2.26;89.87
33506;BME280;19843;51.040;13.782;2022-12-10T10:58:36;99481.56;;;2.30;90.13
33506;BME280;19843;51.040;13.782;2022-12-10T11:01:12;99481.19;;;2.38;89.58
33506;BME280;19843;51.040;13.782;2022-12-10T11:03:46;99488.66;;;2.11;91.26
33506;BME280;19843;51.040;13.782;2022-12-10T11:06:14;99485.28;;;2.26;91.11
33506;BME280;19843;51.040;13.782;2022-12-10T11:08:43;99485.78;;;2.16;90.75
33506;BME280;19843;51.040;13.782;2022-12-10T11:11:13;99482.63;;;2.26;90.72
33506;BME280;19843;51.040;13.782;2022-12-10T11:13:44;99487.72;;;2.50;90.05
33506;BME280;19843;51.040;13.782;2022-12-10T11:16:18;99485.34;;;2.44;89.55
33506;BME280;19843;51.040;13.782;2022-12-10T11:18:56;99475.56;;;2.46;89.91
33506;BME280;19843;51.040;13.782;2022-12-10T11:21:29;99474.03;;;2.40;88.78
33506;BME280;19843;51.040;13.782;2022-12-10T11:23:58;99489.78;;;2.24;89.32
33506;BME280;19843;51.040;13.782;2022-12-10T11:26:40;99492.66;;;2.39;89.67
33506;BME280;19843;51.040;13.782;2022-12-10T11:29:23;99492.56;;;2.40;89.05
33506;BME280;19843;51.040;13.782;2022-12-10T11:32:05;99495.75;;;2.29;89.13
33506;BME280;19843;51.040;13.782;2022-12-10T11:34:48;99494.81;;;2.30;90.20
33506;BME280;19843;51.040;13.782;2022-12-10T11:37:25;99493.56;;;2.38;89.73
33506;BME280;19843;51.040;13.782;2022-12-10T11:40:11;99487.78;;;2.48;89.71
33506;BME280;19843;51.040;13.782;2022-12-10T11:42:51;99496.22;;;2.38;90.16
33506;BME280;19843;51.040;13.782;2022-12-10T11:45:26;99494.84;;;2.29;89.87
33506;BME280;19843;51.040;13.782;2022-12-10T11:48:09;99497.78;;;2.42;90.08
33506;BME280;19843;51.040;13.782;2022-12-10T11:50:44;99500.25;;;2.27;90.05
33506;BME280;19843;51.040;13.782;2022-12-10T11:53:24;99488.38;;;2.17;90.00
33506;BME280;19843;51.040;13.782;2022-12-10T11:56:02;99500.81;;;2.15;90.80
33506;BME280;19843;51.040;13.782;2022-12-10T11:58:44;99492.31;;;2.27;90.43
33506;BME280;19843;51.040;13.782;2022-12-10T12:01:21;99495.72;;;2.11;90.55
33506;BME280;19843;51.040;13.782;2022-12-10T12:04:02;99493.31;;;2.06;92.05
33506;BME280;19843;51.040;13.782;2022-12-10T12:06:49;99499.22;;;2.11;91.39
33506;BME280;19843;51.040;13.782;2022-12-10T12:09:25;99501.75;;;2.14;91.14
33506;BME280;19843;51.040;13.782;2022-12-10T12:12:07;99496.03;;;2.23;90.47
33506;BME280;19843;51.040;13.782;2022-12-10T12:14:42;99489.66;;;2.08;91.63
33506;BME280;19843;51.040;13.782;2022-12-10T12:17:16;99496.59;;;2.11;91.41
33506;BME280;19843;51.040;13.782;2022-12-10T12:19:49;99501.09;;;2.28;90.71
33506;BME280;19843;51.040;13.782;2022-12-10T12:22:23;99498.59;;;2.25;89.84
33506;BME280;19843;51.040;13.782;2022-12-10T12:24:54;99497.72;;;2.24;89.82
33506;BME280;19843;51.040;13.782;2022-12-10T12:27:29;99493.03;;;2.12;90.12
33506;BME280;19843;51.040;13.782;2022-12-10T12:30:03;99500.69;;;2.18;90.71
33506;BME280;19843;51.040;13.782;2022-12-10T12:32:39;99490.38;;;2.12;90.76
33506;BME280;19843;51.040;13.782;2022-12-10T12:35:14;99493.03;;;1.93;91.31
33506;BME280;19843;51.040;13.782;2022-12-10T12:37:47;99493.03;;;2.12;90.99
33506;BME280;19843;51.040;13.782;2022-12-10T12:40:25;99492.31;;;1.90;91.64
33506;BME280;19843;51.040;13.782;2022-12-10T12:42:58;99488.97;;;2.05;91.62
33506;BME280;19843;51.040;13.782;2022-12-10T12:45:32;99491.34;;;1.91;92.58
33506;BME280;19843;51.040;13.782;2022-12-10T12:48:09;99485.09;;;2.12;91.39
33506;BME280;19843;51.040;13.782;2022-12-10T12:50:43;99495.22;;;2.21;91.06
33506;BME280;19843;51.040;13.782;2022-12-10T12:53:13;99490.75;;;2.04;90.72
33506;BME280;19843;51.040;13.782;2022-12-10T12:55:51;99486.50;;;2.19;90.97
33506;BME280;19843;51.040;13.782;2022-12-10T12:58:29;99489.28;;;2.35;90.34
33506;BME280;19843;51.040;13.782;2022-12-10T13:01:06;99483.94;;;2.18;90.72
33506;BME280;19843;51.040;13.782;2022-12-10T13:03:36;99483.81;;;2.21;91.06
33506;BME280;19843;51.040;13.782;2022-12-10T13:06:20;99491.59;;;2.24;90.29
33506;BME280;19843;51.040;13.782;2022-12-10T13:08:53;99489.22;;;2.37;90.11
33506;BME280;19843;51.040;13.782;2022-12-10T13:11:33;99492.94;;;2.33;90.30
33506;BME280;19843;51.040;13.782;2022-12-10T13:14:13;99495.50;;;2.15;89.11
33506;BME280;19843;51.040;13.782;2022-12-10T13:16:55;99497.25;;;2.16;89.36
33506;BME280;19843;51.040;13.782;2022-12-10T13:19:30;99500.16;;;2.10;89.82